Lark Harbour, Canada
Current Conditions -  °F | °C
As of 4:00 PM on Friday 31 Oct 2014 (Local Time) from CYJT Reporting Station
Broken Clouds Broken Clouds  
Wind Chill: 43°   Ceiling: 2200
Heat Index: 48°   Visibility: 15mi
Dew Point: 36°   Wind: 14mph
Humidity: 62%   Direction: 250°WSW
Pressure: 30"   Gusts: NA
Location:  49.1°N, 58.37°W
Report Text: CYJT 311800Z 25012KT 15SM BKN022 09/02 A3000 RMK SC6 SLP161
Loading
Personal Weather Stations






























Interactive Weather Map
Tropical Storm Tracking
New forecast layout! Learn more

10-Day Weather Forecast

Advertisements
Track Severe Weather on mobile